Time;durP1;ratioP1;P1;durP2;ratioP2;P2;SDS_P1;SDS_P2;PMS_P1;PMS_P2;Temp;Humidity;BMP_temperature;BMP_pressure;BME280_temperature;BME280_humidity;BME280_pressure;Samples;Min_cycle;Max_cycle;Signal;HPM_P1;HPM_P2
2022/11/17 00:00:32;;;;;;;13.83;11.33;;;;;;;3.63;94.42;99614.42;1717198;82;21473;-72
2022/11/17 00:03:01;;;;;;;14.43;11.50;;;;;;;3.65;94.54;99616.09;1717301;82;21592;-73
2022/11/17 00:05:28;;;;;;;16.27;12.20;;;;;;;3.68;94.63;99615.18;1717544;82;21015;-73
2022/11/17 00:07:55;;;;;;;16.17;12.07;;;;;;;3.70;94.50;99618.60;1717690;82;21015;-73
2022/11/17 00:10:22;;;;;;;14.47;12.07;;;;;;;3.67;94.33;99618.22;1717278;82;21136;-72
2022/11/17 00:15:34;;;;;;;15.20;12.30;;;;;;;3.71;94.58;99607.34;1717465;82;21652;-73
2022/11/17 00:23:48;;;;;;;13.63;11.17;;;;;;;3.73;94.46;99602.53;1717483;82;21223;-73
2022/11/17 00:26:22;;;;;;;14.90;11.83;;;;;;;3.73;94.41;99601.23;1717661;82;21019;-73
2022/11/17 00:29:04;;;;;;;14.93;11.50;;;;;;;3.74;94.46;99601.66;1717569;82;21042;-74
2022/11/17 00:34:22;;;;;;;15.30;11.37;;;;;;;3.74;94.35;99591.30;1717936;82;20992;-73
2022/11/17 00:36:53;;;;;;;15.67;11.83;;;;;;;3.76;94.49;99593.39;1717512;83;21516;-74
2022/11/17 00:39:22;;;;;;;17.57;11.97;;;;;;;3.77;94.49;99599.00;1717935;82;21031;-74
2022/11/17 00:41:49;;;;;;;19.03;12.60;;;;;;;3.76;94.28;99599.02;1717526;82;21018;-73
2022/11/17 00:44:17;;;;;;;14.40;10.90;;;;;;;3.75;94.29;99599.47;1717727;82;21582;-73
2022/11/17 00:46:44;;;;;;;15.07;11.70;;;;;;;3.75;94.31;99601.22;1717548;82;21042;-73
2022/11/17 00:49:13;;;;;;;16.47;11.77;;;;;;;3.74;94.19;99600.38;1717853;82;21118;-73
2022/11/17 00:51:41;;;;;;;14.73;11.80;;;;;;;3.74;94.25;99601.66;1717476;82;21031;-73
2022/11/17 00:54:11;;;;;;;15.43;11.60;;;;;;;3.75;94.35;99606.40;1717787;82;21038;-73
2022/11/17 00:56:39;;;;;;;15.30;12.30;;;;;;;3.75;94.27;99605.95;1717501;82;21644;-73
2022/11/17 00:59:06;;;;;;;17.03;12.30;;;;;;;3.72;94.09;99599.54;1717854;82;21071;-73
2022/11/17 01:01:33;;;;;;;15.43;12.10;;;;;;;3.72;94.20;99603.88;1717553;82;21566;-73
2022/11/17 01:04:01;;;;;;;17.97;12.23;;;;;;;3.73;94.27;99601.23;1717699;82;21031;-73
2022/11/17 01:06:38;;;;;;;15.60;11.90;;;;;;;3.73;94.31;99596.05;1717466;82;21078;-73
2022/11/17 01:09:16;;;;;;;14.63;11.47;;;;;;;3.72;94.15;99596.95;1717790;82;21051;-73
2022/11/17 01:11:44;;;;;;;18.23;12.50;;;;;;;3.70;94.17;99591.39;1717553;82;21035;-73
2022/11/17 01:14:16;;;;;;;16.87;11.93;;;;;;;3.71;94.32;99590.05;1717960;82;21202;-73
2022/11/17 01:16:44;;;;;;;16.40;12.30;;;;;;;3.72;94.23;99594.81;1717476;82;21034;-73
2022/11/17 01:19:13;;;;;;;15.90;12.33;;;;;;;3.70;94.24;99580.57;1717722;82;21015;-73
2022/11/17 01:21:40;;;;;;;15.30;12.63;;;;;;;3.72;94.38;99581.85;1717478;82;21023;-73
2022/11/17 01:24:10;;;;;;;16.30;12.30;;;;;;;3.71;94.28;99573.20;1717801;82;21050;-73
2022/11/17 01:26:38;;;;;;;15.85;12.35;;;;;;;3.70;94.22;99575.39;1717637;82;21073;-73
2022/11/17 01:29:07;;;;;;;15.13;12.20;;;;;;;3.69;94.26;99586.66;1717420;82;21063;-73
2022/11/17 01:31:38;;;;;;;15.33;12.17;;;;;;;3.69;94.19;99584.06;1717747;82;21034;-73
2022/11/17 01:34:06;;;;;;;;;;;;;;;3.69;94.47;99578.88;1720170;82;21067;-73
2022/11/17 01:39:27;;;;;;;17.43;12.80;;;;;;;3.70;94.38;99583.16;1717533;82;21147;-73
2022/11/17 01:41:55;;;;;;;16.43;12.97;;;;;;;3.69;94.34;99580.63;1717756;82;20987;-73
2022/11/17 01:44:54;;;;;;;18.57;12.50;;;;;;;3.70;94.48;99580.57;1717535;82;21011;-73
2022/11/17 01:47:38;;;;;;;15.73;12.23;;;;;;;3.74;94.66;99578.75;1701965;82;21040;-74
2022/11/17 01:50:35;;;;;;;16.60;12.07;;;;;;;3.76;94.57;99575.70;1717616;82;21493;-74
2022/11/17 01:53:07;;;;;;;16.57;12.77;;;;;;;3.76;94.62;99578.28;1716900;82;21132;-74
2022/11/17 01:55:48;;;;;;;15.90;12.13;;;;;;;3.77;94.43;99574.37;1717438;82;21532;-74
2022/11/17 01:58:32;;;;;;;15.03;12.13;;;;;;;3.76;94.43;99567.47;1717857;82;21449;-74
2022/11/17 02:00:59;;;;;;;14.63;11.77;;;;;;;3.74;94.31;99565.80;1717496;82;20967;-73
2022/11/17 02:03:27;;;;;;;18.20;12.30;;;;;;;3.75;94.47;99569.66;1717773;82;21030;-74
2022/11/17 02:06:13;;;;;;;16.40;12.33;;;;;;;3.76;94.43;99566.17;1717191;82;21137;-73
2022/11/17 02:08:42;;;;;;;16.37;13.30;;;;;;;3.78;94.56;99567.00;1716963;82;21038;-73
2022/11/17 02:11:13;;;;;;;16.37;11.63;;;;;;;3.76;94.29;99563.58;1717495;82;21030;-73
2022/11/17 02:13:40;;;;;;;19.17;12.87;;;;;;;3.78;94.51;99562.27;1717768;82;21472;-73
2022/11/17 02:16:12;;;;;;;16.17;12.80;;;;;;;3.78;94.44;99555.34;1717463;82;21599;-73
2022/11/17 02:18:41;;;;;;;15.93;11.90;;;;;;;3.80;94.49;99557.91;1717404;82;21970;-73
2022/11/17 02:21:42;;;;;;;15.40;12.33;;;;;;;3.79;94.39;99558.77;1717423;82;21019;-73
2022/11/17 02:24:30;;;;;;;15.57;12.10;;;;;;;3.76;94.28;99546.73;1717381;82;21445;-74
2022/11/17 02:27:19;;;;;;;14.90;11.67;;;;;;;3.76;94.28;99548.03;1717294;82;21083;-73
2022/11/17 02:29:51;;;;;;;16.07;11.83;;;;;;;3.73;94.15;99544.22;1717368;82;21412;-74
2022/11/17 02:32:50;;;;;;;15.50;11.53;;;;;;;3.71;94.37;99548.58;1717159;82;21268;-73
2022/11/17 02:35:48;;;;;;;17.07;12.80;;;;;;;3.73;94.46;99542.92;1717115;82;21030;-74
2022/11/17 02:38:42;;;;;;;14.93;12.30;;;;;;;3.69;94.20;99549.08;1717121;82;21062;-73
2022/11/17 02:41:41;;;;;;;16.27;12.30;;;;;;;3.65;94.25;99542.69;1717234;82;21027;-73
2022/11/17 02:44:20;;;;;;;17.33;12.43;;;;;;;3.63;94.32;99547.92;1685864;83;21104;-73
2022/11/17 02:47:04;;;;;;;16.13;11.70;;;;;;;3.63;94.30;99556.12;1685800;83;21208;-73
2022/11/17 02:49:38;;;;;;;17.63;12.40;;;;;;;3.62;94.51;99558.31;1685154;83;21053;-73
2022/11/17 02:52:07;;;;;;;17.27;12.03;;;;;;;3.63;94.55;99553.52;1684663;83;21063;-73
2022/11/17 02:54:34;;;;;;;16.90;11.73;;;;;;;3.62;94.60;99553.97;1685827;83;21527;-74
2022/11/17 02:57:01;;;;;;;15.57;12.23;;;;;;;3.64;94.66;99552.21;1686095;83;21257;-73
2022/11/17 02:59:39;;;;;;;15.17;11.57;;;;;;;3.64;94.65;99546.18;1685861;83;21146;-73
2022/11/17 03:02:37;;;;;;;18.40;12.23;;;;;;;3.65;94.56;99558.23;1685777;83;21028;-73
2022/11/17 03:05:30;;;;;;;16.70;12.30;;;;;;;3.65;94.61;99556.49;1685734;83;21097;-73
2022/11/17 03:08:08;;;;;;;19.27;13.13;;;;;;;3.65;94.51;99556.94;1662708;85;21520;-73
2022/11/17 03:10:53;;;;;;;18.17;12.83;;;;;;;3.65;94.62;99543.53;1681192;83;21067;-73
2022/11/17 03:13:50;;;;;;;16.17;12.40;;;;;;;3.65;94.58;99542.69;1685699;83;21115;-74
2022/11/17 03:16:39;;;;;;;15.27;12.00;;;;;;;3.63;94.56;99545.75;1685839;83;20934;-74
2022/11/17 03:19:29;;;;;;;15.33;11.57;;;;;;;3.61;94.46;99548.39;1693801;82;21038;-73
2022/11/17 03:22:12;;;;;;;;;;;;;;;3.63;94.78;99544.04;1719788;82;21533;-73
2022/11/17 03:24:50;;;;;;;18.10;12.70;;;;;;;3.63;94.57;99541.45;1717351;82;20706;-73
2022/11/17 03:27:28;;;;;;;16.87;12.80;;;;;;;3.60;94.48;99535.01;1717474;82;21174;-74
2022/11/17 03:30:00;;;;;;;18.20;12.57;;;;;;;3.57;94.50;99542.44;1702175;83;21501;-74
2022/11/17 03:32:32;;;;;;;15.77;12.50;;;;;;;3.60;94.65;99541.94;1688379;83;21086;-74
2022/11/17 03:35:04;;;;;;;16.13;12.80;;;;;;;3.63;94.79;99545.75;1690925;83;21094;-74
2022/11/17 03:37:33;;;;;;;18.47;13.03;;;;;;;3.65;94.73;99541.39;1696633;83;21043;-74
2022/11/17 03:40:08;;;;;;;16.00;11.60;;;;;;;3.65;94.62;99547.88;1694287;83;21152;-74
2022/11/17 03:42:39;;;;;;;17.23;11.83;;;;;;;3.64;94.64;99546.18;1699602;83;21496;-74
2022/11/17 03:45:23;;;;;;;17.63;12.77;;;;;;;3.65;94.51;99549.17;1699661;83;21018;-74
2022/11/17 03:47:58;;;;;;;17.07;12.33;;;;;;;3.64;94.54;99548.32;1690983;83;21046;-74
2022/11/17 03:50:33;;;;;;;15.67;12.17;;;;;;;3.64;94.53;99553.50;1700027;83;21968;-74
2022/11/17 03:53:04;;;;;;;17.00;12.77;;;;;;;3.65;94.64;99553.91;1699614;83;21086;-74
2022/11/17 03:55:49;;;;;;;;;;;;;;;3.69;94.75;99552.12;1702414;83;21520;-74
2022/11/17 03:58:20;;;;;;;17.50;12.40;;;;;;;3.70;94.61;99550.77;1699740;83;20100;-74
2022/11/17 04:00:52;;;;;;;17.07;12.30;;;;;;;3.70;94.66;99552.52;1699872;83;21030;-74
2022/11/17 04:03:21;;;;;;;16.50;12.90;;;;;;;3.71;94.54;99543.84;1695700;83;21042;-74
2022/11/17 04:05:48;;;;;;;17.00;12.65;;;;;;;3.70;94.52;99545.59;1695812;83;21076;-76
2022/11/17 04:08:15;;;;;;;19.00;12.47;;;;;;;3.69;94.56;99542.59;1699484;83;20999;-74
2022/11/17 04:16:13;;;;;;;16.70;12.63;;;;;;;3.72;94.36;99537.79;1700003;83;21591;-74
2022/11/17 04:18:40;;;;;;;17.80;12.50;;;;;;;3.71;94.48;99531.73;1699606;83;21136;-73
2022/11/17 04:21:07;;;;;;;16.30;12.20;;;;;;;3.69;94.42;99534.82;1699938;83;21487;-73
2022/11/17 04:23:34;;;;;;;16.37;12.27;;;;;;;3.71;94.43;99534.31;1699609;83;22115;-74
2022/11/17 04:28:49;;;;;;;18.93;12.07;;;;;;;3.70;94.39;99538.27;1677411;85;21010;-73
2022/11/17 04:31:21;;;;;;;16.37;12.33;;;;;;;3.68;94.32;99540.88;1677691;85;21162;-74
2022/11/17 04:34:00;;;;;;;17.10;12.20;;;;;;;3.68;94.35;99542.61;1677253;85;21070;-73
2022/11/17 04:36:31;;;;;;;16.17;12.20;;;;;;;3.69;94.40;99545.64;1677443;85;21496;-74
2022/11/17 04:38:59;;;;;;;16.77;11.97;;;;;;;3.68;94.48;99539.58;1657599;85;21019;-74
2022/11/17 04:44:17;;;;;;;17.07;13.43;;;;;;;3.71;94.60;99549.87;1677363;85;21158;-74
2022/11/17 04:46:45;;;;;;;16.47;12.00;;;;;;;3.74;94.60;99547.66;1677618;85;21450;-74
2022/11/17 04:49:14;;;;;;;17.63;13.13;;;;;;;3.76;94.62;99543.30;1677446;85;21815;-74
2022/11/17 04:51:42;;;;;;;16.77;13.10;;;;;;;3.76;94.64;99539.41;1677882;85;21027;-73
2022/11/17 04:54:11;;;;;;;19.27;13.03;;;;;;;3.75;94.52;99543.75;1677495;85;21027;-73
2022/11/17 04:56:39;;;;;;;16.07;12.23;;;;;;;3.76;94.51;99536.37;1677443;85;21561;-74
2022/11/17 04:59:07;;;;;;;17.57;13.43;;;;;;;3.76;94.39;99542.84;1677325;85;20992;-73
2022/11/17 05:01:34;;;;;;;20.13;12.63;;;;;;;3.76;94.40;99540.70;1677401;85;20984;-75
2022/11/17 05:04:08;;;;;;;16.33;13.20;;;;;;;3.76;94.42;99535.52;1677455;85;21432;-74
2022/11/17 05:06:43;;;;;;;16.83;12.67;;;;;;;3.72;94.17;99530.02;1677447;85;21010;-74
2022/11/17 05:09:15;;;;;;;16.77;12.53;;;;;;;3.69;94.24;99529.64;1677380;85;22066;-74
2022/11/17 05:14:29;;;;;;;16.37;12.57;;;;;;;3.71;94.46;99535.62;1677446;85;20938;-74
2022/11/17 05:17:05;;;;;;;17.27;12.50;;;;;;;3.69;94.34;99537.41;1677572;85;21429;-74
2022/11/17 05:19:44;;;;;;;18.67;12.10;;;;;;;3.69;94.49;99535.27;1677523;85;21043;-74
2022/11/17 05:25:02;;;;;;;15.98;12.05;;;;;;;3.69;94.39;99545.19;1674858;85;21016;-74
2022/11/17 05:27:29;;;;;;;18.67;12.90;;;;;;;3.68;94.42;99545.20;1669810;85;21039;-73
2022/11/17 05:29:56;;;;;;;16.00;12.20;;;;;;;3.69;94.52;99548.23;1669934;85;21051;-74
2022/11/17 05:32:23;;;;;;;17.63;12.63;;;;;;;3.71;94.53;99553.76;1669890;85;21024;-74
2022/11/17 05:34:50;;;;;;;19.33;13.53;;;;;;;3.70;94.34;99548.17;1669876;85;21149;-73
2022/11/17 05:37:17;;;;;;;17.43;12.70;;;;;;;3.68;94.38;99546.05;1663703;85;21054;-74
2022/11/17 05:39:44;;;;;;;19.30;13.53;;;;;;;3.71;94.56;99550.32;1694051;83;21006;-73
2022/11/17 05:42:11;;;;;;;20.63;12.87;;;;;;;3.72;94.50;99550.75;1669811;85;21019;-74
2022/11/17 05:44:38;;;;;;;16.27;12.13;;;;;;;3.71;94.29;99547.73;1669855;85;21577;-73
2022/11/17 05:47:05;;;;;;;16.60;12.30;;;;;;;3.72;94.40;99537.79;1667444;85;21131;-74
2022/11/17 05:49:32;;;;;;;15.57;11.87;;;;;;;3.73;94.34;99542.92;1669785;85;21012;-74
2022/11/17 05:51:59;;;;;;;17.70;13.00;;;;;;;3.75;94.41;99545.48;1670017;85;21027;-73
2022/11/17 05:54:26;;;;;;;18.30;12.03;;;;;;;3.76;94.40;99548.48;1669961;85;22058;-74
2022/11/17 05:57:04;;;;;;;19.60;13.30;;;;;;;3.77;94.39;99545.02;1670198;85;21043;-74
2022/11/17 05:59:42;;;;;;;19.10;13.80;;;;;;;3.80;94.34;99544.95;1669948;85;21592;-74
2022/11/17 06:02:26;;;;;;;17.53;12.50;;;;;;;3.81;94.38;99536.27;1669898;85;21454;-73
2022/11/17 06:04:53;;;;;;;17.13;12.10;;;;;;;3.82;94.23;99541.01;1679920;84;21486;-73
2022/11/17 06:07:20;;;;;;;18.83;12.40;;;;;;;3.82;94.26;99546.19;1682509;84;21094;-74
2022/11/17 06:09:47;;;;;;;17.70;13.13;;;;;;;3.82;94.14;99544.89;1685621;84;21008;-74
2022/11/17 06:12:14;;;;;;;17.10;12.27;;;;;;;3.82;94.23;99549.63;1688538;84;21128;-74
2022/11/17 06:14:43;;;;;;;17.70;12.07;;;;;;;3.83;94.18;99556.98;1693273;84;21016;-74
2022/11/17 06:17:31;;;;;;;17.17;12.30;;;;;;;3.83;94.07;99556.98;1693676;84;21536;-74
2022/11/17 06:20:06;;;;;;;18.17;12.10;;;;;;;3.80;94.12;99547.09;1679345;84;21029;-73
2022/11/17 06:22:34;;;;;;;18.93;12.63;;;;;;;3.80;94.02;99550.98;1723072;82;21060;-74
2022/11/17 06:25:04;;;;;;;16.53;11.87;;;;;;;3.82;94.21;99549.63;1724308;83;22119;-74
2022/11/17 06:27:32;;;;;;;16.57;12.70;;;;;;;3.84;94.15;99550.91;1724065;83;21080;-72
2022/11/17 06:30:03;;;;;;;18.47;12.97;;;;;;;3.84;93.98;99551.75;1723638;83;21522;-72
2022/11/17 06:32:30;;;;;;;;;;;;;;;3.82;93.89;99555.27;1727238;83;21001;-72
2022/11/17 06:34:58;;;;;;;17.33;12.53;;;;;;;3.79;93.81;99554.89;1723840;83;21856;-72
2022/11/17 06:37:25;;;;;;;18.87;12.27;;;;;;;3.77;93.92;99557.53;1717475;83;21623;-72
2022/11/17 06:39:52;;;;;;;18.27;12.60;;;;;;;3.79;93.98;99552.30;1720412;83;21060;-72
2022/11/17 06:43:02;;;;;;;17.63;11.37;;;;;;;3.81;94.11;99541.45;1693378;84;21021;-72
2022/11/17 06:44:48;;;;;;;19.07;12.20;;;;;;;3.82;93.99;99548.33;1689686;84;20956;-72
2022/11/17 06:47:14;;;;;;;18.43;12.43;;;;;;;3.82;93.88;99549.63;1693498;84;21509;-73
2022/11/17 06:49:41;;;;;;;17.17;12.10;;;;;;;3.85;94.08;99543.08;1693594;84;21155;-75
2022/11/17 06:52:09;;;;;;;15.63;12.00;;;;;;;3.89;94.06;99543.87;1693574;84;21040;-74
2022/11/17 06:54:36;;;;;;;16.03;12.77;;;;;;;3.89;93.93;99547.31;1693543;84;21549;-73
2022/11/17 06:57:03;;;;;;;17.47;12.30;;;;;;;3.88;93.71;99551.23;1687563;84;21016;-73
2022/11/17 06:59:30;;;;;;;15.13;11.70;;;;;;;3.89;93.73;99550.36;1693522;84;21291;-72
2022/11/17 07:01:58;;;;;;;16.63;12.17;;;;;;;3.92;93.84;99551.58;1693664;84;21046;-71
2022/11/17 07:04:25;;;;;;;15.93;11.90;;;;;;;3.92;93.81;99548.98;1669558;84;20913;-71
2022/11/17 07:06:52;;;;;;;15.80;11.70;;;;;;;3.92;93.72;99549.83;1693923;84;21024;-71
2022/11/17 07:09:19;;;;;;;17.90;12.43;;;;;;;3.95;93.78;99546.31;1693276;84;21036;-71
2022/11/17 07:11:46;;;;;;;18.57;11.73;;;;;;;3.94;93.54;99551.11;1693817;84;21444;-71
2022/11/17 07:14:13;;;;;;;14.70;11.07;;;;;;;3.92;93.55;99551.58;1693268;84;21108;-71
2022/11/17 07:16:42;;;;;;;15.73;11.00;;;;;;;3.93;93.58;99553.27;1693832;84;20951;-71
2022/11/17 07:19:10;;;;;;;15.97;11.57;;;;;;;3.95;93.63;99551.05;1693571;84;21509;-73
2022/11/17 07:21:37;;;;;;;14.13;11.03;;;;;;;3.96;93.48;99553.20;1693691;84;21016;-81
2022/11/17 07:24:04;;;;;;;14.50;10.93;;;;;;;3.96;93.46;99549.31;1689462;84;21004;-72
2022/11/17 07:26:31;;;;;;;16.57;11.60;;;;;;;3.93;93.38;99543.75;1690701;84;21483;-73
2022/11/17 07:28:58;;;;;;;17.60;11.07;;;;;;;3.96;93.51;99550.60;1691400;84;21445;-72
2022/11/17 07:31:25;;;;;;;16.73;11.97;;;;;;;3.98;93.46;99552.27;1691641;84;21074;-73
2022/11/17 07:33:53;;;;;;;16.60;11.47;;;;;;;3.97;93.40;99542.80;1686942;84;21318;-72
2022/11/17 07:36:20;;;;;;;17.47;12.53;;;;;;;3.98;93.43;99548.38;1684355;84;21288;-72
2022/11/17 07:38:47;;;;;;;16.77;11.77;;;;;;;4.01;93.36;99553.94;1720260;82;21079;-75
2022/11/17 07:41:14;;;;;;;15.37;10.87;;;;;;;4.00;93.36;99553.55;1720446;82;21025;-72
2022/11/17 07:43:41;;;;;;;16.33;11.30;;;;;;;4.03;93.50;99553.47;1688870;84;21084;-72
2022/11/17 07:46:11;;;;;;;13.77;10.70;;;;;;;4.05;93.49;99555.59;1690745;84;21040;-72
2022/11/17 07:48:39;;;;;;;15.80;11.57;;;;;;;4.08;93.53;99557.27;1690376;84;21681;-72
2022/11/17 07:51:06;;;;;;;15.80;11.07;;;;;;;4.12;93.55;99554.98;1689970;84;21558;-74
2022/11/17 07:53:34;;;;;;;16.63;11.33;;;;;;;4.11;93.22;99563.67;1689304;84;21600;-73
2022/11/17 07:56:08;;;;;;;13.97;10.70;;;;;;;4.10;93.17;99553.75;1690043;84;21095;-74
2022/11/17 07:58:36;;;;;;;15.93;10.83;;;;;;;4.09;93.05;99558.50;1691724;84;21028;-73
2022/11/17 08:01:11;;;;;;;13.70;10.27;;;;;;;4.10;93.20;99562.82;1691935;84;21015;-72
2022/11/17 08:03:38;;;;;;;15.40;10.00;;;;;;;4.09;92.94;99564.14;1714136;82;21154;-71
2022/11/17 08:06:08;;;;;;;13.63;9.63;;;;;;;4.07;93.14;99556.38;1690419;83;21047;-77
2022/11/17 08:08:36;;;;;;;13.10;9.83;;;;;;;4.09;92.98;99564.98;1715293;82;21082;-76
2022/11/17 08:11:06;;;;;;;12.67;10.03;;;;;;;4.07;93.04;99555.09;1702461;83;21468;-74
2022/11/17 08:13:33;;;;;;;14.20;9.87;;;;;;;4.07;92.80;99560.27;1715713;82;21043;-72
2022/11/17 08:16:01;;;;;;;12.30;9.40;;;;;;;4.04;92.89;99555.16;1702385;83;21147;-73
2022/11/17 08:18:29;;;;;;;12.33;8.93;;;;;;;4.08;92.98;99558.11;1702298;83;21540;-72
2022/11/17 08:21:07;;;;;;;11.40;8.20;;;;;;;4.10;92.93;99556.76;1702680;83;21539;-73
2022/11/17 08:23:36;;;;;;;11.40;8.93;;;;;;;4.09;93.01;99550.72;1702392;83;21105;-73
2022/11/17 08:26:05;;;;;;;12.60;9.07;;;;;;;4.08;92.70;99547.73;1715085;82;21042;-72
2022/11/17 08:28:32;;;;;;;11.47;8.40;;;;;;;4.08;92.68;99543.84;1715091;82;22077;-73
2022/11/17 08:31:06;;;;;;;11.40;8.20;;;;;;;4.05;92.61;99546.52;1669000;85;21046;-73
2022/11/17 08:33:34;;;;;;;12.63;8.43;;;;;;;4.04;92.62;99552.57;1668776;85;21087;-75
2022/11/17 08:36:03;;;;;;;12.03;9.00;;;;;;;4.05;92.72;99548.23;1669000;85;21043;-78
2022/11/17 08:38:30;;;;;;;9.80;8.00;;;;;;;4.04;92.56;99548.68;1669222;85;21062;-73
2022/11/17 08:41:04;;;;;;;10.27;8.10;;;;;;;4.05;92.63;99550.83;1665760;85;21179;-73
2022/11/17 08:43:31;;;;;;;11.43;8.37;;;;;;;4.06;92.57;99548.66;1665111;85;21095;-73
2022/11/17 08:45:58;;;;;;;11.37;8.47;;;;;;;4.03;92.48;99545.69;1665781;85;21035;-71
2022/11/17 08:48:25;;;;;;;10.33;8.27;;;;;;;4.03;92.38;99549.58;1665210;86;20974;-75
2022/11/17 08:50:52;;;;;;;11.40;7.37;;;;;;;4.02;92.40;99550.03;1665726;86;21046;-76
2022/11/17 08:53:22;;;;;;;13.60;8.90;;;;;;;4.03;92.45;99541.35;1665526;86;21151;-72
2022/11/17 08:55:50;;;;;;;11.10;7.90;;;;;;;4.06;92.42;99552.55;1665500;85;21071;-75
2022/11/17 08:58:17;;;;;;;10.87;8.17;;;;;;;4.07;92.38;99551.64;1665510;86;21035;-71
2022/11/17 09:00:45;;;;;;;10.37;7.40;;;;;;;4.11;92.28;99557.19;1665426;86;21679;-76
2022/11/17 09:03:13;;;;;;;11.23;8.07;;;;;;;4.15;92.32;99558.35;1665662;86;21047;-71
2022/11/17 09:05:43;;;;;;;11.17;7.93;;;;;;;4.20;92.34;99556.95;1665347;85;21134;-72
2022/11/17 09:08:12;;;;;;;11.08;8.10;;;;;;;4.26;92.32;99560.69;1665648;85;20947;-71
2022/11/17 09:10:40;;;;;;;10.70;8.00;;;;;;;4.33;92.23;99569.19;1666689;86;21075;-72
2022/11/17 09:13:07;;;;;;;9.43;7.50;;;;;;;4.40;92.22;99559.05;1649194;86;21476;-72
2022/11/17 09:15:34;;;;;;;10.57;7.37;;;;;;;4.42;91.86;99559.86;1649192;86;21493;-72
2022/11/17 09:18:02;;;;;;;11.70;7.90;;;;;;;4.40;91.86;99567.67;1649097;86;21616;-72
2022/11/17 09:20:30;;;;;;;10.67;8.00;;;;;;;4.42;91.77;99567.20;1649107;86;21057;-73
2022/11/17 09:23:01;;;;;;;11.17;7.43;;;;;;;4.39;91.52;99570.33;1649115;86;21525;-72
2022/11/17 09:25:29;;;;;;;11.18;7.72;;;;;;;4.36;91.55;99569.95;1649564;86;21031;-72
2022/11/17 09:27:56;;;;;;;8.43;7.23;;;;;;;4.36;91.45;99565.22;1676770;85;21456;-72
2022/11/17 09:30:23;;;;;;;9.33;7.53;;;;;;;4.33;91.43;99567.44;1699677;83;21205;-72
2022/11/17 09:32:51;;;;;;;9.10;7.10;;;;;;;4.34;91.45;99568.28;1669776;85;21009;-74
2022/11/17 09:35:18;;;;;;;10.53;8.17;;;;;;;4.34;91.53;99574.32;1699750;84;20996;-72
2022/11/17 09:37:46;;;;;;;12.30;8.20;;;;;;;4.37;91.35;99570.80;1659313;85;21038;-73
2022/11/17 09:40:17;;;;;;;9.27;7.07;;;;;;;4.37;91.23;99569.50;1696816;83;21026;-72
2022/11/17 09:42:45;;;;;;;12.57;7.97;;;;;;;4.35;91.18;99561.77;1669869;85;22048;-72
2022/11/17 09:45:21;;;;;;;9.67;7.57;;;;;;;4.37;91.04;99567.75;1699646;84;21513;-72
2022/11/17 09:48:12;;;;;;;10.43;8.33;;;;;;;4.38;90.99;99571.20;1669794;85;21270;-72
2022/11/17 09:50:40;;;;;;;;;;;;;;;4.35;90.87;99561.77;1702333;84;21047;-72
2022/11/17 09:53:27;;;;;;;10.87;7.40;;;;;;;4.36;90.75;99560.03;1699466;84;20443;-72
2022/11/17 09:56:04;;;;;;;8.43;6.93;;;;;;;4.36;90.78;99559.58;1668409;85;21142;-73
2022/11/17 09:58:47;;;;;;;10.87;7.40;;;;;;;4.37;90.65;99557.83;1699234;84;21437;-73
2022/11/17 10:01:20;;;;;;;9.70;7.37;;;;;;;4.38;90.49;99562.98;1669859;85;20987;-72
2022/11/17 10:03:50;;;;;;;9.70;8.13;;;;;;;4.40;90.49;99557.75;1699489;84;21008;-71
2022/11/17 10:06:26;;;;;;;10.00;7.55;;;;;;;4.39;90.45;99559.95;1669935;85;21043;-73
2022/11/17 10:09:08;;;;;;;9.70;7.70;;;;;;;4.36;90.42;99560.88;1699780;84;21134;-72
2022/11/17 10:11:38;;;;;;;12.00;8.47;;;;;;;4.35;90.38;99558.30;1682070;84;21019;-72
2022/11/17 10:14:16;;;;;;;11.70;7.50;;;;;;;4.33;90.22;99559.66;1670018;85;21071;-72
2022/11/17 10:16:53;;;;;;;10.03;8.33;;;;;;;4.33;90.24;99551.87;1699518;84;21084;-71
2022/11/17 10:19:31;;;;;;;9.93;8.17;;;;;;;4.32;90.23;99551.45;1696978;84;21001;-72
2022/11/17 10:22:06;;;;;;;11.00;8.33;;;;;;;4.32;90.14;99549.30;1669781;85;21186;-73
2022/11/17 10:24:46;;;;;;;11.17;8.07;;;;;;;4.30;90.22;99551.11;1699651;84;21072;-72
2022/11/17 10:27:29;;;;;;;9.50;8.45;;;;;;;4.32;90.05;99548.85;1668932;85;21012;-72
2022/11/17 10:30:06;;;;;;;9.60;8.40;;;;;;;4.33;90.14;99550.58;1697621;84;21037;-72
2022/11/17 10:32:47;;;;;;;11.77;8.37;;;;;;;4.33;90.03;99558.36;1680283;85;21058;-72
2022/11/17 10:35:34;;;;;;;9.47;8.17;;;;;;;4.32;89.95;99535.87;1680492;85;21127;-72
2022/11/17 10:38:21;;;;;;;11.00;8.50;;;;;;;4.31;89.79;99542.42;1664102;85;21045;-71
2022/11/17 10:40:51;;;;;;;10.80;9.07;;;;;;;4.32;90.07;99546.25;1660497;85;21014;-72
2022/11/17 10:43:31;;;;;;;;;;;;;;;4.33;89.82;99553.17;1682832;85;21046;-74
2022/11/17 10:46:06;;;;;;;10.87;9.23;;;;;;;4.28;89.58;99545.09;1680611;85;20495;-72
2022/11/17 10:48:37;;;;;;;10.80;9.03;;;;;;;4.28;89.55;99542.50;1678973;85;21997;-72
2022/11/17 10:51:20;;;;;;;11.23;9.10;;;;;;;4.27;89.70;99547.27;1680186;85;21026;-72
2022/11/17 10:54:20;;;;;;;13.60;9.57;;;;;;;4.28;89.69;99539.91;1660038;85;21042;-73
2022/11/17 10:56:51;;;;;;;11.93;9.50;;;;;;;4.23;89.33;99543.45;1619694;88;21142;-72
2022/11/17 10:59:31;;;;;;;13.60;10.17;;;;;;;4.21;89.40;99550.86;1627008;88;21051;-74
2022/11/17 11:02:01;;;;;;;12.53;9.58;;;;;;;4.17;89.34;99542.31;1634884;87;21976;-73
2022/11/17 11:04:39;;;;;;;12.10;9.20;;;;;;;4.16;89.46;99543.22;1634452;87;21078;-72
2022/11/17 11:07:20;;;;;;;11.70;9.43;;;;;;;4.18;89.40;99544.00;1634446;87;21524;-72
2022/11/17 11:10:02;;;;;;;;;;;;;;;4.17;89.30;99534.98;1637179;87;21083;-73
2022/11/17 11:13:06;;;;;;;13.40;8.87;;;;;;;4.19;89.30;99541.84;1637314;87;20563;-72
2022/11/17 11:15:36;;;;;;;11.43;8.93;;;;;;;4.26;89.52;99545.12;1634392;87;21055;-72
2022/11/17 11:18:19;;;;;;;13.30;10.27;;;;;;;4.29;89.41;99545.04;1634366;87;21582;-74
2022/11/17 11:21:27;;;;;;;12.17;10.03;;;;;;;4.30;89.06;99534.25;1626873;88;21485;-72
2022/11/17 11:24:20;;;;;;;12.70;9.80;;;;;;;4.27;88.96;99543.37;1634538;87;21051;-73
2022/11/17 11:27:07;;;;;;;14.33;9.90;;;;;;;4.25;89.16;99536.49;1638290;85;21222;-72
2022/11/17 11:30:04;;;;;;;11.90;9.20;;;;;;;4.22;88.83;99535.27;1659612;86;21154;-72
2022/11/17 11:32:54;;;;;;;12.53;9.23;;;;;;;4.18;88.72;99545.30;1635062;86;21098;-76
2022/11/17 11:35:58;;;;;;;12.67;9.10;;;;;;;4.18;88.98;99541.41;1635717;86;21070;-72
2022/11/17 11:39:07;;;;;;;12.27;9.10;;;;;;;4.20;88.78;99540.94;1634640;86;22173;-73
2022/11/17 11:42:04;;;;;;;10.40;8.80;;;;;;;4.21;88.87;99540.48;1635163;86;21046;-72
2022/11/17 11:44:55;;;;;;;10.20;8.13;;;;;;;4.27;88.88;99543.37;1642460;86;21520;-72
2022/11/17 11:47:48;;;;;;;8.63;7.42;;;;;;;4.25;88.67;99545.57;1634794;86;21059;-73
2022/11/17 11:50:25;;;;;;;8.30;7.10;;;;;;;4.23;88.43;99543.91;1591432;89;21579;-73
2022/11/17 11:53:19;;;;;;;10.33;7.97;;;;;;;4.22;88.49;99543.05;1649771;86;21049;-72
2022/11/17 11:55:50;;;;;;;9.83;7.87;;;;;;;4.20;88.33;99540.94;1634682;86;21007;-74
2022/11/17 11:58:24;;;;;;;11.10;7.60;;;;;;;4.23;88.48;99529.19;1607760;88;21142;-72
2022/11/17 12:01:02;;;;;;;9.73;7.57;;;;;;;4.22;88.29;99536.57;1635462;86;21011;-72
2022/11/17 12:03:50;;;;;;;12.20;8.37;;;;;;;4.20;88.12;99538.80;1634719;86;21015;-72
2022/11/17 12:06:40;;;;;;;12.63;8.37;;;;;;;4.21;88.33;99534.88;1632915;86;20962;-72
2022/11/17 12:09:33;;;;;;;11.10;8.07;;;;;;;4.22;88.39;99533.98;1681761;84;21258;-72
2022/11/17 12:12:03;;;;;;;10.13;7.40;;;;;;;4.21;88.25;99531.41;1690771;84;21354;-72
2022/11/17 12:14:36;;;;;;;10.87;8.03;;;;;;;4.19;88.30;99537.95;1668916;84;21469;-74
2022/11/17 12:17:22;;;;;;;10.83;7.83;;;;;;;4.19;88.14;99538.40;1661433;86;20924;-73
2022/11/17 12:19:59;;;;;;;11.93;9.23;;;;;;;4.16;88.18;99539.33;1695147;83;21021;-77
2022/11/17 12:22:34;;;;;;;12.20;9.68;;;;;;;4.17;88.10;99546.66;1677590;84;21104;-72
2022/11/17 12:25:30;;;;;;;12.57;9.97;;;;;;;4.13;87.86;99546.30;1703982;83;21152;-75
2022/11/17 12:27:57;;;;;;;12.77;9.87;;;;;;;4.06;88.01;99543.47;1665107;84;21443;-73
2022/11/17 12:30:36;;;;;;;13.50;9.90;;;;;;;4.01;88.00;99540.53;1664107;83;21525;-71
2022/11/17 12:33:07;;;;;;;13.30;10.20;;;;;;;4.00;88.13;99542.72;1645978;85;21477;-73